createdAt,value
2022-12-27T00:05:15.534Z,8.36
2022-12-27T00:10:37.936Z,8.34
2022-12-27T00:16:04.302Z,8.36
2022-12-27T00:21:26.249Z,8.24
2022-12-27T00:26:47.933Z,8.10
2022-12-27T00:32:09.652Z,8.02
2022-12-27T00:37:31.348Z,8.02
2022-12-27T00:42:53.078Z,7.84
2022-12-27T00:48:14.904Z,7.86
2022-12-27T00:53:36.671Z,7.72
2022-12-27T00:59:01.150Z,7.63
2022-12-27T01:04:22.832Z,7.47
2022-12-27T01:09:44.525Z,7.43
2022-12-27T01:15:08.489Z,7.27
2022-12-27T01:20:30.196Z,7.02
2022-12-27T01:26:00.114Z,7.18
2022-12-27T01:31:25.058Z,7.21
2022-12-27T01:36:46.792Z,6.97
2022-12-27T01:42:38.248Z,7.08
2022-12-27T01:48:04.453Z,6.81
2022-12-27T01:53:30.851Z,6.61
2022-12-27T01:58:56.726Z,6.43
2022-12-27T02:04:23.996Z,6.54
2022-12-27T02:09:56.097Z,6.45
2022-12-27T02:15:17.916Z,6.19
2022-12-27T02:21:06.556Z,6.07
2022-12-27T02:26:35.630Z,6.16
2022-12-27T02:32:16.974Z,6.05
2022-12-27T02:37:44.894Z,6.02
2022-12-27T02:43:25.782Z,6.29
2022-12-27T02:49:11.092Z,6.02
2022-12-27T02:55:05.180Z,5.99
2022-12-27T03:00:52.713Z,5.71
2022-12-27T03:06:39.007Z,5.48
2022-12-27T03:12:25.829Z,5.21
2022-12-27T03:18:03.925Z,5.02
2022-12-27T03:23:45.002Z,4.96
2022-12-27T03:29:27.129Z,4.88
2022-12-27T03:34:59.438Z,4.70
2022-12-27T03:41:03.068Z,4.73
2022-12-27T03:46:33.907Z,4.64
2022-12-27T03:52:03.709Z,4.79
2022-12-27T03:57:26.924Z,4.89
2022-12-27T04:02:48.776Z,4.83
2022-12-27T04:08:29.100Z,4.81
2022-12-27T04:14:09.313Z,4.90
2022-12-27T04:19:49.654Z,4.98
2022-12-27T04:25:29.909Z,5.12
2022-12-27T04:31:10.090Z,4.96
2022-12-27T04:36:31.791Z,4.93
2022-12-27T04:42:12.171Z,5.22
2022-12-27T04:47:52.566Z,5.33
2022-12-27T04:53:36.258Z,5.30
2022-12-27T04:59:16.546Z,5.23
2022-12-27T05:04:39.210Z,5.28
2022-12-27T05:10:23.969Z,4.97
2022-12-27T05:15:45.743Z,4.71
2022-12-27T05:21:07.869Z,4.92
2022-12-27T05:26:30.712Z,5.09
2022-12-27T05:31:52.404Z,4.81
2022-12-27T05:37:14.117Z,5.05
2022-12-27T05:42:35.783Z,4.82
2022-12-27T05:47:58.852Z,4.51
2022-12-27T05:53:20.539Z,4.60
2022-12-27T05:58:42.601Z,4.57
2022-12-27T06:04:04.425Z,4.60
2022-12-27T06:09:26.328Z,4.27
2022-12-27T06:14:48.004Z,4.21
2022-12-27T06:20:10.711Z,4.14
2022-12-27T06:25:32.387Z,4.04
2022-12-27T06:30:54.280Z,4.17
2022-12-27T06:36:18.971Z,4.01
2022-12-27T06:41:40.685Z,4.01
2022-12-27T06:47:03.172Z,4.27
2022-12-27T06:52:26.313Z,4.19
2022-12-27T06:57:48.007Z,4.31
2022-12-27T07:03:09.888Z,4.10
2022-12-27T07:08:31.730Z,4.04
2022-12-27T07:13:55.372Z,4.06
2022-12-27T07:19:17.090Z,4.09
2022-12-27T07:24:38.805Z,4.18
2022-12-27T07:30:00.565Z,3.95
2022-12-27T07:35:22.307Z,4.25
2022-12-27T07:40:44.021Z,4.24
2022-12-27T07:46:18.295Z,4.18
2022-12-27T07:51:40.059Z,4.32
2022-12-27T07:57:01.750Z,4.44
2022-12-27T08:02:23.580Z,4.53
2022-12-27T08:07:45.384Z,4.52
2022-12-27T08:13:07.079Z,4.58
2022-12-27T08:18:28.909Z,4.57
2022-12-27T08:23:50.787Z,4.56
2022-12-27T08:29:15.604Z,4.58
2022-12-27T08:34:37.317Z,4.68
2022-12-27T08:40:02.618Z,4.74
2022-12-27T08:45:24.741Z,4.97
2022-12-27T08:50:46.430Z,5.05
2022-12-27T08:56:08.209Z,5.18
2022-12-27T09:01:30.050Z,5.23
2022-12-27T09:06:52.256Z,5.26
2022-12-27T09:12:13.984Z,5.09
2022-12-27T09:17:35.869Z,5.29
2022-12-27T09:22:59.113Z,5.20
2022-12-27T09:28:20.816Z,5.23
2022-12-27T09:33:43.138Z,5.50
2022-12-27T09:39:05.366Z,5.60
2022-12-27T09:44:40.824Z,5.52
2022-12-27T09:50:17.744Z,5.53
2022-12-27T09:55:52.762Z,5.73
2022-12-27T10:01:35.414Z,5.81
2022-12-27T10:07:19.883Z,5.84
2022-12-27T10:12:59.224Z,5.97
2022-12-27T10:18:31.936Z,6.13
2022-12-27T10:23:58.292Z,6.12
2022-12-27T10:29:24.168Z,6.30
2022-12-27T10:34:49.215Z,6.27
2022-12-27T10:40:16.887Z,6.35
2022-12-27T10:45:42.205Z,6.58
2022-12-27T10:51:11.581Z,6.64
2022-12-27T10:56:39.157Z,6.63
2022-12-27T11:02:01.630Z,6.65
2022-12-27T11:07:30.307Z,6.74
2022-12-27T11:13:04.734Z,6.90
2022-12-27T11:18:26.593Z,6.93
2022-12-27T11:23:53.650Z,7.05
2022-12-27T11:29:21.829Z,7.15
2022-12-27T11:34:48.936Z,7.28
2022-12-27T11:40:34.605Z,7.40
2022-12-27T11:45:57.658Z,7.43
2022-12-27T11:51:37.921Z,7.43
2022-12-27T11:57:29.176Z,7.50
2022-12-27T12:03:16.411Z,7.57
2022-12-27T12:09:02.246Z,7.66
2022-12-27T12:14:45.535Z,7.68
2022-12-27T12:20:25.327Z,7.75
2022-12-27T12:26:06.537Z,7.82
2022-12-27T12:32:05.026Z,7.85
2022-12-27T12:37:57.186Z,7.90
2022-12-27T12:43:40.337Z,7.93
2022-12-27T12:49:25.824Z,7.99
2022-12-27T12:55:15.623Z,8.06
2022-12-27T13:01:01.845Z,8.15
2022-12-27T13:06:50.289Z,8.20
2022-12-27T13:12:52.858Z,8.32
2022-12-27T13:18:36.764Z,8.37
2022-12-27T13:24:33.356Z,8.31
2022-12-27T13:30:14.331Z,8.22
2022-12-27T13:35:56.870Z,8.18
2022-12-27T13:41:38.027Z,8.10
2022-12-27T13:47:08.687Z,8.12
2022-12-27T13:52:59.763Z,8.18
2022-12-27T13:58:56.168Z,8.17
2022-12-27T14:04:59.020Z,8.10
2022-12-27T14:10:53.873Z,8.00
2022-12-27T14:16:38.613Z,7.99
2022-12-27T14:22:16.441Z,7.91
2022-12-27T14:28:01.398Z,7.89
2022-12-27T14:33:41.230Z,7.84
2022-12-27T14:39:34.281Z,7.86
2022-12-27T14:45:28.019Z,7.89
2022-12-27T14:51:58.879Z,7.77
2022-12-27T14:57:39.923Z,7.76
2022-12-27T15:03:54.545Z,7.71
2022-12-27T15:09:38.913Z,7.56
2022-12-27T15:15:12.662Z,7.46
2022-12-27T15:20:34.311Z,7.44
2022-12-27T15:26:11.287Z,7.37
2022-12-27T15:31:54.515Z,7.25
2022-12-27T15:37:47.409Z,7.24
2022-12-27T15:43:21.284Z,7.18
2022-12-27T15:49:20.240Z,7.11
2022-12-27T15:55:06.303Z,7.06
2022-12-27T16:00:34.021Z,7.04
2022-12-27T16:05:56.918Z,6.94
2022-12-27T16:11:18.884Z,6.87
2022-12-27T16:16:50.087Z,6.82
2022-12-27T16:22:24.881Z,6.87
2022-12-27T16:27:54.681Z,6.72
2022-12-27T16:33:33.273Z,6.48
2022-12-27T16:39:11.418Z,6.47
2022-12-27T16:44:43.772Z,6.27
2022-12-27T16:50:32.611Z,6.24
2022-12-27T16:56:15.091Z,6.24
2022-12-27T17:01:37.453Z,6.32
2022-12-27T17:06:59.511Z,6.12
2022-12-27T17:17:46.827Z,5.99
2022-12-27T17:23:08.581Z,6.18
2022-12-27T17:28:40.797Z,5.77
2022-12-27T17:34:16.770Z,5.91
2022-12-27T17:39:57.370Z,5.81
2022-12-27T17:45:34.426Z,5.79
2022-12-27T17:51:02.009Z,5.72
2022-12-27T17:56:42.331Z,5.85
2022-12-27T18:02:15.072Z,5.79
2022-12-27T18:07:36.913Z,5.63
2022-12-27T18:13:02.497Z,5.37
2022-12-27T18:18:31.904Z,5.34
2022-12-27T18:23:55.044Z,5.30
2022-12-27T18:29:16.956Z,5.27
2022-12-27T18:34:46.215Z,5.12
2022-12-27T18:40:20.225Z,4.89
2022-12-27T18:45:42.043Z,4.86
2022-12-27T18:51:04.121Z,4.97
2022-12-27T18:56:32.350Z,4.94
2022-12-27T19:01:56.364Z,4.82
2022-12-27T19:07:18.350Z,4.65
2022-12-27T19:12:43.363Z,4.63
2022-12-27T19:18:16.579Z,4.57
2022-12-27T19:23:43.304Z,4.99
2022-12-27T19:29:16.160Z,5.09
2022-12-27T19:34:44.309Z,5.05
2022-12-27T19:40:06.833Z,4.91
2022-12-27T19:45:29.939Z,4.71
2022-12-27T19:50:54.549Z,4.57
2022-12-27T19:56:16.803Z,4.61
2022-12-27T20:01:38.689Z,4.57
2022-12-27T20:07:01.586Z,4.47
2022-12-27T20:12:23.391Z,4.52
2022-12-27T20:17:45.446Z,4.47
2022-12-27T20:23:07.230Z,4.17
2022-12-27T20:28:28.979Z,4.21
2022-12-27T20:33:52.582Z,4.28
2022-12-27T20:39:14.292Z,4.37
2022-12-27T20:44:36.071Z,4.25
2022-12-27T20:49:57.745Z,4.16
2022-12-27T20:55:19.509Z,4.33
2022-12-27T21:00:41.792Z,4.52
2022-12-27T21:06:14.354Z,4.60
2022-12-27T21:11:36.351Z,4.62
2022-12-27T21:16:58.689Z,4.45
2022-12-27T21:22:20.635Z,4.62
2022-12-27T21:27:42.345Z,4.67
2022-12-27T21:33:04.183Z,4.66
2022-12-27T21:38:26.622Z,4.69
2022-12-27T21:43:49.214Z,4.58
2022-12-27T21:49:13.122Z,4.58
2022-12-27T21:54:35.209Z,4.45
2022-12-27T21:59:57.937Z,4.43
2022-12-27T22:05:19.734Z,4.55
2022-12-27T22:10:41.668Z,4.60
2022-12-27T22:16:06.081Z,4.62
2022-12-27T22:21:32.988Z,4.69
2022-12-27T22:26:54.713Z,4.84
2022-12-27T22:32:16.407Z,5.07
2022-12-27T22:37:38.125Z,5.06
2022-12-27T22:42:59.829Z,4.87
2022-12-27T22:48:21.515Z,4.65
2022-12-27T22:53:43.198Z,4.81
2022-12-27T22:59:09.731Z,4.67
2022-12-27T23:04:31.433Z,4.84
2022-12-27T23:09:53.203Z,4.64
2022-12-27T23:15:15.509Z,4.74
2022-12-27T23:20:37.213Z,4.86
2022-12-27T23:26:07.660Z,4.99
2022-12-27T23:31:29.570Z,5.06
2022-12-27T23:36:52.407Z,4.93
2022-12-27T23:42:14.160Z,5.04
2022-12-27T23:47:35.856Z,4.96
2022-12-27T23:52:57.562Z,5.06
2022-12-27T23:58:19.271Z,4.82
